createdAt,value
2019-01-26T00:01:50.138Z,-2.45
2019-01-26T00:07:08.230Z,-2.43
2019-01-26T00:12:25.751Z,-2.48
2019-01-26T00:17:43.674Z,-2.49
2019-01-26T00:23:01.829Z,-2.46
2019-01-26T00:28:19.290Z,-2.43
2019-01-26T00:33:36.754Z,-2.48
2019-01-26T00:38:54.406Z,-2.36
2019-01-26T00:44:11.832Z,-2.37
2019-01-26T00:49:29.131Z,-2.25
2019-01-26T00:54:47.342Z,-2.24
2019-01-26T01:00:06.289Z,-2.29
2019-01-26T01:05:24.133Z,-2.44
2019-01-26T01:10:41.579Z,-2.43
2019-01-26T01:15:59.277Z,-2.43
2019-01-26T01:21:17.656Z,-2.26
2019-01-26T01:26:34.931Z,-2.31
2019-01-26T01:31:52.762Z,-2.36
2019-01-26T01:37:11.201Z,-2.35
2019-01-26T01:42:29.776Z,-2.31
2019-01-26T01:47:47.285Z,-2.24
2019-01-26T01:53:05.165Z,-2.26
2019-01-26T01:58:22.815Z,-2.21
2019-01-26T02:03:41.423Z,-2.20
2019-01-26T02:08:59.482Z,-2.20
2019-01-26T02:14:17.360Z,-2.16
2019-01-26T02:19:34.813Z,-2.12
2019-01-26T02:24:52.134Z,-2.12
2019-01-26T02:30:10.744Z,-2.10
2019-01-26T02:35:28.095Z,-2.08
2019-01-26T02:40:45.956Z,-2.15
2019-01-26T02:46:04.068Z,-2.18
2019-01-26T02:51:20.559Z,-2.15
2019-01-26T02:56:39.199Z,-2.14
2019-01-26T03:01:58.575Z,-2.05
2019-01-26T03:07:16.665Z,-1.88
2019-01-26T03:12:34.486Z,-1.91
2019-01-26T03:17:52.019Z,-1.94
2019-01-26T03:23:11.282Z,-1.93
2019-01-26T03:28:28.844Z,-1.89
2019-01-26T03:33:46.483Z,-1.73
2019-01-26T03:39:04.180Z,-1.64
2019-01-26T03:44:21.698Z,-1.57
2019-01-26T03:49:38.854Z,-1.46
2019-01-26T03:54:56.245Z,-1.40
2019-01-26T04:00:15.282Z,-1.37
2019-01-26T04:05:34.087Z,-1.29
2019-01-26T04:10:53.274Z,-1.27
2019-01-26T04:16:10.363Z,-1.20
2019-01-26T04:21:28.105Z,-1.29
2019-01-26T04:26:45.640Z,-1.14
2019-01-26T04:32:02.900Z,-1.14
2019-01-26T04:37:20.076Z,-1.00
2019-01-26T04:42:37.913Z,-1.00
2019-01-26T04:47:55.011Z,-0.95
2019-01-26T04:53:12.290Z,-0.87
2019-01-26T04:58:30.125Z,-0.82
2019-01-26T05:03:47.889Z,-0.72
2019-01-26T05:09:07.397Z,-0.71
2019-01-26T05:14:25.409Z,-0.70
2019-01-26T05:19:42.912Z,-0.74
2019-01-26T05:25:00.401Z,-0.80
2019-01-26T05:30:19.379Z,-0.70
2019-01-26T05:35:36.758Z,-0.70
2019-01-26T05:40:54.024Z,-0.62
2019-01-26T05:46:12.176Z,-0.65
2019-01-26T05:51:29.494Z,-0.50
2019-01-26T05:56:47.689Z,-0.48
2019-01-26T06:02:23.658Z,-0.39
2019-01-26T06:07:41.548Z,-0.29
2019-01-26T06:13:07.788Z,-0.17
2019-01-26T06:18:45.942Z,-0.21
2019-01-26T06:24:04.014Z,-0.09
2019-01-26T06:29:22.312Z,-0.04
2019-01-26T06:34:39.496Z,0.03
2019-01-26T06:39:57.341Z,0.14
2019-01-26T06:45:24.208Z,0.19
2019-01-26T06:50:42.248Z,0.29
2019-01-26T06:56:02.639Z,0.33
2019-01-26T07:01:20.354Z,0.48
2019-01-26T07:06:42.158Z,0.54
2019-01-26T07:11:59.746Z,0.59
2019-01-26T07:17:17.610Z,0.63
2019-01-26T07:22:35.591Z,0.60
2019-01-26T07:27:53.042Z,0.67
2019-01-26T07:33:10.668Z,0.51
2019-01-26T07:38:27.822Z,0.62
2019-01-26T07:43:45.357Z,0.60
2019-01-26T07:49:02.996Z,0.39
2019-01-26T07:54:22.791Z,0.40
2019-01-26T07:59:42.007Z,0.11
2019-01-26T08:04:59.530Z,0.41
2019-01-26T08:10:18.851Z,0.39
2019-01-26T08:15:37.640Z,0.37
2019-01-26T08:20:56.029Z,0.29
2019-01-26T08:26:14.227Z,0.17
2019-01-26T08:31:32.307Z,0.42
2019-01-26T08:36:49.490Z,0.56
2019-01-26T08:42:07.408Z,0.84
2019-01-26T08:47:25.499Z,0.94
2019-01-26T08:52:42.758Z,0.99
2019-01-26T08:58:00.009Z,1.06
2019-01-26T09:03:43.110Z,1.10
2019-01-26T09:09:00.562Z,1.00
2019-01-26T09:14:18.131Z,0.95
2019-01-26T09:19:38.269Z,1.09
2019-01-26T09:24:55.785Z,1.06
2019-01-26T09:30:13.185Z,1.17
2019-01-26T09:35:30.459Z,1.24
2019-01-26T09:40:47.512Z,1.33
2019-01-26T09:46:05.125Z,1.46
2019-01-26T09:51:23.170Z,1.53
2019-01-26T09:56:40.875Z,1.60
2019-01-26T10:01:58.114Z,1.67
2019-01-26T10:07:15.729Z,1.91
2019-01-26T10:12:33.159Z,1.91
2019-01-26T10:17:51.471Z,2.00
2019-01-26T10:23:08.934Z,1.97
2019-01-26T10:28:34.607Z,2.06
2019-01-26T10:33:52.186Z,2.14
2019-01-26T10:39:15.919Z,2.03
2019-01-26T10:44:34.767Z,2.02
2019-01-26T10:49:52.227Z,2.07
2019-01-26T10:55:10.169Z,2.13
2019-01-26T11:00:28.102Z,2.16
2019-01-26T11:05:45.888Z,2.30
2019-01-26T11:11:03.453Z,2.32
2019-01-26T11:16:21.559Z,2.16
2019-01-26T11:21:39.934Z,2.17
2019-01-26T11:26:57.068Z,2.13
2019-01-26T11:32:14.808Z,1.91
2019-01-26T11:37:32.350Z,1.99
2019-01-26T11:42:50.311Z,1.97
2019-01-26T11:48:14.463Z,1.88
2019-01-26T11:53:32.851Z,1.79
2019-01-26T11:58:50.498Z,1.88
2019-01-26T12:04:33.474Z,1.82
2019-01-26T12:09:50.838Z,1.73
2019-01-26T12:15:10.197Z,1.68
2019-01-26T12:20:27.850Z,1.61
2019-01-26T12:25:45.155Z,1.62
2019-01-26T12:31:02.975Z,1.56
2019-01-26T12:36:20.600Z,1.42
2019-01-26T12:41:39.214Z,1.66
2019-01-26T12:46:57.333Z,1.72
2019-01-26T12:52:14.509Z,1.87
2019-01-26T12:57:32.184Z,1.93
2019-01-26T13:02:50.453Z,2.00
2019-01-26T13:08:09.923Z,2.18
2019-01-26T13:13:25.871Z,2.22
2019-01-26T13:18:43.321Z,2.47
2019-01-26T13:24:00.747Z,2.48
2019-01-26T13:29:19.327Z,2.47
2019-01-26T13:34:38.429Z,2.54
2019-01-26T13:39:56.126Z,2.52
2019-01-26T13:45:15.027Z,2.53
2019-01-26T13:50:33.526Z,2.70
2019-01-26T13:55:51.649Z,2.73
2019-01-26T14:01:10.129Z,2.72
2019-01-26T14:06:27.751Z,2.63
2019-01-26T14:11:46.126Z,2.79
2019-01-26T14:17:04.088Z,2.70
2019-01-26T14:22:21.893Z,2.87
2019-01-26T14:27:39.911Z,2.86
2019-01-26T14:32:58.012Z,2.97
2019-01-26T14:38:16.548Z,3.03
2019-01-26T14:43:34.349Z,2.95
2019-01-26T14:48:52.643Z,2.99
2019-01-26T14:54:10.026Z,3.03
2019-01-26T14:59:27.891Z,3.07
2019-01-26T15:04:45.871Z,3.02
2019-01-26T15:10:03.263Z,3.14
2019-01-26T15:15:20.992Z,3.09
2019-01-26T15:20:40.362Z,3.20
2019-01-26T15:25:58.435Z,3.18
2019-01-26T15:31:16.000Z,3.30
2019-01-26T15:36:34.361Z,3.32
2019-01-26T15:41:52.226Z,3.34
2019-01-26T15:47:11.740Z,3.38
2019-01-26T15:52:29.407Z,3.39
2019-01-26T15:57:47.445Z,3.37
2019-01-26T16:03:05.366Z,3.53
2019-01-26T16:08:23.252Z,3.53
2019-01-26T16:13:40.734Z,3.53
2019-01-26T16:18:58.527Z,3.45
2019-01-26T16:24:16.633Z,3.63
2019-01-26T16:29:34.992Z,3.63
2019-01-26T16:34:52.230Z,3.72
2019-01-26T16:40:11.468Z,3.93
2019-01-26T16:45:30.590Z,3.99
2019-01-26T16:50:48.471Z,4.02
2019-01-26T16:56:07.648Z,4.10
2019-01-26T17:01:25.490Z,4.19
2019-01-26T17:06:45.297Z,4.18
2019-01-26T17:12:02.708Z,4.22
2019-01-26T17:17:21.942Z,4.16
2019-01-26T17:22:39.779Z,4.25
2019-01-26T17:27:59.192Z,4.17
2019-01-26T17:33:17.774Z,4.29
2019-01-26T17:38:35.849Z,4.29
2019-01-26T17:43:53.573Z,4.27
2019-01-26T17:49:11.304Z,4.17
2019-01-26T17:54:29.655Z,4.36
2019-01-26T17:59:47.436Z,4.38
2019-01-26T18:05:06.190Z,4.40
2019-01-26T18:10:23.567Z,4.35
2019-01-26T18:15:41.914Z,4.33
2019-01-26T18:20:59.829Z,4.28
2019-01-26T18:26:18.188Z,4.22
2019-01-26T18:31:36.346Z,4.31
2019-01-26T18:36:54.548Z,4.41
2019-01-26T18:42:12.822Z,4.43
2019-01-26T18:47:30.250Z,4.44
2019-01-26T18:52:48.557Z,4.59
2019-01-26T18:58:06.212Z,4.57
2019-01-26T19:03:49.406Z,4.55
2019-01-26T19:09:10.582Z,4.58
2019-01-26T19:14:27.876Z,4.66
2019-01-26T19:19:46.745Z,4.68
2019-01-26T19:25:04.931Z,4.77
2019-01-26T19:30:23.093Z,4.75
2019-01-26T19:35:42.213Z,4.74
2019-01-26T19:41:00.054Z,4.84
2019-01-26T19:46:17.708Z,4.86
2019-01-26T19:51:36.107Z,4.93
2019-01-26T19:56:54.897Z,4.94
2019-01-26T20:02:12.319Z,5.06
2019-01-26T20:07:32.841Z,5.05
2019-01-26T20:12:52.520Z,5.06
2019-01-26T20:18:08.619Z,5.08
2019-01-26T20:23:26.132Z,5.02
2019-01-26T20:28:43.819Z,5.08
2019-01-26T20:34:01.651Z,5.09
2019-01-26T20:39:19.613Z,5.04
2019-01-26T20:44:41.184Z,5.02
2019-01-26T20:49:59.389Z,5.03
2019-01-26T20:55:17.079Z,4.96
2019-01-26T21:00:34.761Z,5.06
2019-01-26T21:05:52.866Z,5.15
2019-01-26T21:11:10.731Z,5.21
2019-01-26T21:16:28.669Z,5.13
2019-01-26T21:21:46.069Z,5.18
2019-01-26T21:27:03.469Z,5.03
2019-01-26T21:32:21.847Z,5.20
2019-01-26T21:37:40.294Z,5.28
2019-01-26T21:42:58.797Z,5.31
2019-01-26T21:48:17.403Z,5.22
2019-01-26T21:53:35.407Z,5.21
2019-01-26T21:58:53.165Z,4.89
2019-01-26T22:04:10.801Z,5.07
2019-01-26T22:09:28.573Z,5.16
2019-01-26T22:14:45.980Z,5.27
2019-01-26T22:20:03.641Z,5.35
2019-01-26T22:25:20.891Z,5.12
2019-01-26T22:30:38.138Z,5.33
2019-01-26T22:35:57.029Z,5.17
2019-01-26T22:41:14.694Z,5.19
2019-01-26T22:46:32.290Z,4.68
2019-01-26T22:51:53.375Z,4.59
2019-01-26T22:57:08.381Z,4.62
2019-01-26T23:02:25.927Z,4.31
2019-01-26T23:07:49.487Z,4.21
2019-01-26T23:13:38.783Z,4.15
2019-01-26T23:19:09.753Z,3.93
2019-01-26T23:24:35.891Z,4.12
2019-01-26T23:30:12.877Z,4.01
2019-01-26T23:35:30.154Z,3.81
2019-01-26T23:40:48.251Z,3.55
2019-01-26T23:46:05.439Z,3.47
2019-01-26T23:51:22.784Z,3.17
2019-01-26T23:56:40.425Z,3.22
